createdAt,value
2018-09-25T00:00:45.433Z,8.00
2018-09-25T00:01:45.433Z,8.00
2018-09-25T00:02:45.422Z,8.00
2018-09-25T00:03:45.416Z,8.00
2018-09-25T00:04:45.411Z,8.00
2018-09-25T00:05:45.408Z,8.00
2018-09-25T00:06:45.400Z,8.00
2018-09-25T00:07:45.393Z,8.00
2018-09-25T00:08:45.390Z,8.00
2018-09-25T00:09:45.385Z,8.00
2018-09-25T00:10:45.378Z,8.00
2018-09-25T00:11:45.370Z,8.00
2018-09-25T00:12:45.365Z,8.00
2018-09-25T00:13:45.361Z,8.00
2018-09-25T00:14:45.380Z,8.00
2018-09-25T00:15:45.349Z,8.00
2018-09-25T00:16:45.358Z,8.00
2018-09-25T00:17:45.338Z,8.00
2018-09-25T00:18:45.334Z,8.00
2018-09-25T00:19:45.323Z,8.00
2018-09-25T00:20:45.320Z,8.00
2018-09-25T00:21:45.313Z,8.00
2018-09-25T00:22:45.309Z,8.00
2018-09-25T00:23:45.300Z,8.00
2018-09-25T00:24:45.297Z,8.00
2018-09-25T00:25:45.290Z,8.00
2018-09-25T00:26:45.287Z,8.00
2018-09-25T00:27:45.278Z,8.00
2018-09-25T00:28:45.273Z,8.00
2018-09-25T00:29:45.267Z,8.00
2018-09-25T00:30:45.262Z,8.00
2018-09-25T00:31:45.255Z,8.00
2018-09-25T00:32:45.251Z,8.00
2018-09-25T00:33:45.472Z,8.00
2018-09-25T00:34:45.239Z,8.00
2018-09-25T00:35:45.231Z,8.00
2018-09-25T00:36:45.230Z,4.00
2018-09-25T00:37:45.223Z,4.00
2018-09-25T00:38:45.215Z,4.00
2018-09-25T00:39:45.209Z,4.00
2018-09-25T00:40:45.206Z,4.00
2018-09-25T00:41:45.198Z,4.00
2018-09-25T00:42:45.193Z,4.00
2018-09-25T00:43:45.195Z,4.00
2018-09-25T00:44:45.183Z,4.00
2018-09-25T00:45:45.174Z,4.00
2018-09-25T00:46:45.170Z,4.00
2018-09-25T00:47:45.164Z,4.00
2018-09-25T00:48:45.157Z,4.00
2018-09-25T00:49:45.152Z,4.00
2018-09-25T00:50:45.146Z,4.00
2018-09-25T00:51:45.142Z,4.00
2018-09-25T00:52:45.135Z,4.00
2018-09-25T00:53:45.129Z,4.00
2018-09-25T00:54:45.124Z,4.00
2018-09-25T00:55:45.117Z,4.00
2018-09-25T00:56:45.113Z,4.00
2018-09-25T00:57:45.107Z,4.00
2018-09-25T00:58:45.100Z,4.00
2018-09-25T00:59:45.095Z,4.00
2018-09-25T01:00:45.088Z,4.00
2018-09-25T01:01:45.083Z,4.00
2018-09-25T01:02:45.079Z,4.00
2018-09-25T01:03:45.074Z,4.00
2018-09-25T01:04:45.947Z,4.00
2018-09-25T01:05:45.063Z,4.00
2018-09-25T01:06:45.053Z,4.00
2018-09-25T01:07:45.048Z,4.00
2018-09-25T01:08:45.041Z,4.00
2018-09-25T01:09:45.037Z,4.00
2018-09-25T01:10:45.032Z,4.00
2018-09-25T01:11:45.025Z,4.00
2018-09-25T01:12:45.018Z,8.00
2018-09-25T01:13:45.019Z,4.00
2018-09-25T01:14:45.007Z,4.00
2018-09-25T01:15:45.000Z,4.00
2018-09-25T01:16:44.995Z,4.00
2018-09-25T01:17:44.990Z,4.00
2018-09-25T01:18:44.985Z,4.00
2018-09-25T01:19:44.980Z,4.00
2018-09-25T01:20:44.981Z,4.00
2018-09-25T01:21:44.968Z,4.00
2018-09-25T01:22:44.961Z,4.00
2018-09-25T01:23:44.954Z,4.00
2018-09-25T01:24:44.947Z,4.00
2018-09-25T01:25:44.944Z,4.00
2018-09-25T01:26:44.936Z,4.00
2018-09-25T01:27:44.930Z,4.00
2018-09-25T01:28:44.925Z,4.00
2018-09-25T01:29:44.919Z,4.00
2018-09-25T01:30:44.913Z,4.00
2018-09-25T01:31:44.933Z,4.00
2018-09-25T01:32:44.902Z,4.00
2018-09-25T01:33:45.881Z,4.00
2018-09-25T01:34:44.892Z,4.00
2018-09-25T01:35:44.885Z,4.00
2018-09-25T01:36:44.915Z,4.00
2018-09-25T01:37:44.873Z,4.00
2018-09-25T01:38:44.866Z,4.00
2018-09-25T01:39:44.861Z,4.00
2018-09-25T01:40:44.856Z,4.00
2018-09-25T01:41:44.849Z,4.00
2018-09-25T01:42:44.846Z,4.00
2018-09-25T01:43:44.838Z,4.00
2018-09-25T01:44:44.830Z,4.00
2018-09-25T01:45:44.826Z,4.00
2018-09-25T01:46:44.819Z,4.00
2018-09-25T01:47:44.812Z,4.00
2018-09-25T01:48:44.807Z,4.00
2018-09-25T01:49:44.802Z,4.00
2018-09-25T01:50:44.795Z,4.00
2018-09-25T01:51:44.790Z,4.00
2018-09-25T01:52:44.784Z,4.00
2018-09-25T01:53:44.778Z,4.00
2018-09-25T01:54:44.773Z,4.00
2018-09-25T01:55:44.775Z,4.00
2018-09-25T01:56:44.772Z,4.00
2018-09-25T01:57:44.754Z,4.00
2018-09-25T01:58:44.748Z,4.00
2018-09-25T01:59:44.741Z,4.00
2018-09-25T02:00:44.736Z,4.00
2018-09-25T02:01:44.729Z,4.00
2018-09-25T02:02:44.724Z,4.00
2018-09-25T02:03:45.029Z,4.00
2018-09-25T02:04:44.711Z,4.00
2018-09-25T02:05:44.764Z,4.00
2018-09-25T02:06:44.701Z,4.00
2018-09-25T02:07:44.696Z,4.00
2018-09-25T02:08:44.695Z,4.00
2018-09-25T02:09:44.681Z,4.00
2018-09-25T02:10:44.676Z,4.00
2018-09-25T02:11:44.673Z,4.00
2018-09-25T02:12:44.663Z,4.00
2018-09-25T02:13:44.664Z,4.00
2018-09-25T02:14:44.652Z,4.00
2018-09-25T02:15:44.645Z,4.00
2018-09-25T02:16:44.644Z,4.00
2018-09-25T02:17:44.634Z,8.00
2018-09-25T02:18:44.628Z,8.00
2018-09-25T02:19:44.623Z,4.00
2018-09-25T02:20:44.615Z,4.00
2018-09-25T02:21:44.611Z,4.00
2018-09-25T02:22:44.604Z,4.00
2018-09-25T02:23:44.597Z,4.00
2018-09-25T02:24:44.593Z,4.00
2018-09-25T02:25:44.588Z,4.00
2018-09-25T02:26:44.580Z,4.00
2018-09-25T02:27:44.574Z,4.00
2018-09-25T02:28:44.566Z,4.00
2018-09-25T02:29:44.561Z,4.00
2018-09-25T02:30:44.556Z,4.00
2018-09-25T02:31:44.548Z,4.00
2018-09-25T02:32:44.543Z,4.00
2018-09-25T02:33:44.539Z,4.00
2018-09-25T02:34:44.532Z,4.00
2018-09-25T02:35:44.524Z,4.00
2018-09-25T02:36:45.075Z,4.00
2018-09-25T02:37:44.513Z,4.00
2018-09-25T02:38:44.512Z,4.00
2018-09-25T02:39:44.505Z,4.00
2018-09-25T02:40:44.494Z,4.00
2018-09-25T02:41:44.489Z,4.00
2018-09-25T02:42:44.484Z,4.00
2018-09-25T02:43:44.478Z,4.00
2018-09-25T02:44:44.479Z,4.00
2018-09-25T02:45:44.465Z,4.00
2018-09-25T02:46:44.463Z,4.00
2018-09-25T02:47:44.456Z,4.00
2018-09-25T02:48:44.445Z,4.00
2018-09-25T02:49:44.439Z,4.00
2018-09-25T02:50:44.434Z,4.00
2018-09-25T02:51:44.426Z,4.00
2018-09-25T02:52:44.420Z,4.00
2018-09-25T02:53:44.419Z,4.00
2018-09-25T02:54:44.408Z,4.00
2018-09-25T02:55:44.405Z,4.00
2018-09-25T02:56:44.403Z,4.00
2018-09-25T02:57:44.393Z,4.00
2018-09-25T02:58:44.385Z,4.00
2018-09-25T02:59:44.378Z,4.00
2018-09-25T03:00:44.375Z,4.00
2018-09-25T03:01:44.367Z,4.00
2018-09-25T03:02:44.361Z,4.00
2018-09-25T03:03:44.354Z,4.00
2018-09-25T03:04:44.350Z,4.00
2018-09-25T03:05:44.346Z,4.00
2018-09-25T03:06:44.338Z,4.00
2018-09-25T03:07:44.330Z,4.00
2018-09-25T03:08:44.326Z,4.00
2018-09-25T03:09:44.320Z,4.00
2018-09-25T03:10:44.314Z,4.00
2018-09-25T03:11:44.305Z,4.00
2018-09-25T03:12:44.301Z,4.00
2018-09-25T03:13:44.294Z,4.00
2018-09-25T03:14:44.288Z,4.00
2018-09-25T03:15:44.286Z,4.00
2018-09-25T03:16:44.276Z,4.00
2018-09-25T03:17:44.275Z,4.00
2018-09-25T03:18:44.268Z,4.00
2018-09-25T03:19:44.257Z,8.00
2018-09-25T03:20:44.255Z,8.00
2018-09-25T03:21:44.247Z,8.00
2018-09-25T03:22:44.245Z,8.00
2018-09-25T03:23:44.248Z,8.00
2018-09-25T03:24:44.228Z,8.00
2018-09-25T03:25:44.221Z,8.00
2018-09-25T03:26:44.217Z,8.00
2018-09-25T03:27:44.210Z,8.00
2018-09-25T03:28:44.204Z,8.00
2018-09-25T03:29:44.197Z,8.00
2018-09-25T03:30:44.192Z,8.00
2018-09-25T03:31:44.182Z,8.00
2018-09-25T03:32:44.178Z,8.00
2018-09-25T03:33:44.172Z,8.00
2018-09-25T03:34:44.166Z,8.00
2018-09-25T03:35:44.162Z,8.00
2018-09-25T03:36:44.154Z,8.00
2018-09-25T03:37:44.147Z,8.00
2018-09-25T03:38:44.140Z,8.00
2018-09-25T03:39:44.180Z,8.00
2018-09-25T03:40:44.132Z,8.00
2018-09-25T03:41:44.123Z,8.00
2018-09-25T03:42:44.115Z,8.00
2018-09-25T03:43:44.109Z,8.00
2018-09-25T03:44:44.103Z,8.00
2018-09-25T03:45:44.097Z,8.00
2018-09-25T03:46:44.090Z,8.00
2018-09-25T03:47:44.091Z,8.00
2018-09-25T03:48:44.077Z,8.00
2018-09-25T03:49:44.071Z,8.00
2018-09-25T03:50:44.067Z,8.00
2018-09-25T03:51:44.064Z,8.00
2018-09-25T03:52:44.053Z,8.00
2018-09-25T03:53:44.049Z,8.00
2018-09-25T03:54:44.043Z,8.00
2018-09-25T03:55:44.036Z,8.00
2018-09-25T03:56:44.029Z,8.00
2018-09-25T03:57:44.021Z,8.00
2018-09-25T03:58:44.019Z,8.00
2018-09-25T03:59:44.083Z,8.00
2018-09-25T04:00:44.004Z,8.00
2018-09-25T04:01:43.996Z,8.00
2018-09-25T04:02:43.995Z,8.00
2018-09-25T04:03:44.016Z,8.00
2018-09-25T04:04:43.976Z,8.00
2018-09-25T04:05:43.981Z,8.00
2018-09-25T04:06:43.965Z,8.00
2018-09-25T04:07:43.958Z,8.00
2018-09-25T04:08:44.243Z,8.00
2018-09-25T04:09:43.947Z,8.00
2018-09-25T04:10:43.944Z,8.00
2018-09-25T04:11:43.935Z,8.00
2018-09-25T04:12:43.927Z,8.00
2018-09-25T04:13:43.922Z,8.00
2018-09-25T04:14:43.914Z,8.00
2018-09-25T04:15:43.909Z,8.00
2018-09-25T04:16:43.904Z,8.00
2018-09-25T04:17:43.900Z,8.00
2018-09-25T04:18:43.889Z,8.00
2018-09-25T04:19:43.883Z,8.00
2018-09-25T04:20:43.884Z,8.00
2018-09-25T04:21:43.870Z,8.00
2018-09-25T04:22:43.864Z,8.00
2018-09-25T04:23:43.857Z,8.00
2018-09-25T04:24:43.855Z,8.00
2018-09-25T04:25:43.844Z,8.00
2018-09-25T04:26:43.844Z,8.00
2018-09-25T04:27:43.833Z,8.00
2018-09-25T04:28:43.830Z,8.00
2018-09-25T04:29:43.821Z,8.00
2018-09-25T04:30:43.814Z,8.00
2018-09-25T04:31:43.810Z,8.00
2018-09-25T04:32:43.806Z,12.00
2018-09-25T04:33:43.795Z,12.00
2018-09-25T04:34:43.802Z,12.00
2018-09-25T04:35:43.781Z,8.00
2018-09-25T04:36:43.775Z,16.00
2018-09-25T04:37:43.768Z,16.00
2018-09-25T04:38:43.762Z,16.00
2018-09-25T04:39:44.624Z,20.00
2018-09-25T04:40:43.750Z,16.00
2018-09-25T04:41:43.753Z,20.00
2018-09-25T04:42:43.739Z,20.00
2018-09-25T04:43:43.731Z,16.00
2018-09-25T04:44:43.723Z,16.00
2018-09-25T04:45:43.722Z,16.00
2018-09-25T04:46:43.711Z,20.00
2018-09-25T04:47:43.761Z,24.00
2018-09-25T04:48:43.707Z,24.00
2018-09-25T04:49:43.692Z,28.00
2018-09-25T04:50:43.687Z,24.00
2018-09-25T04:51:43.680Z,28.00
2018-09-25T04:52:43.678Z,32.00
2018-09-25T04:53:43.667Z,32.00
2018-09-25T04:54:43.696Z,36.00
2018-09-25T04:55:43.652Z,40.00
2018-09-25T04:56:43.648Z,44.00
2018-09-25T04:57:43.641Z,48.00
2018-09-25T04:58:43.635Z,52.00
2018-09-25T04:59:43.627Z,60.00
2018-09-25T05:00:43.620Z,60.00
2018-09-25T05:01:43.619Z,72.00
2018-09-25T05:02:43.612Z,72.00
2018-09-25T05:03:43.601Z,80.00
2018-09-25T05:04:43.595Z,88.00
2018-09-25T05:05:43.590Z,96.00
2018-09-25T05:06:43.665Z,104.00
2018-09-25T05:07:43.583Z,112.00
2018-09-25T05:08:43.569Z,120.00
2018-09-25T05:09:43.563Z,128.00
2018-09-25T05:10:43.556Z,140.00
2018-09-25T05:11:43.549Z,148.00
2018-09-25T05:12:43.546Z,156.00
2018-09-25T05:13:43.537Z,168.00
2018-09-25T05:14:43.539Z,176.00
2018-09-25T05:15:43.546Z,188.00
2018-09-25T05:16:43.516Z,196.00
2018-09-25T05:17:43.510Z,212.00
2018-09-25T05:18:43.504Z,224.00
2018-09-25T05:19:43.498Z,232.00
2018-09-25T05:20:43.492Z,248.00
2018-09-25T05:21:43.485Z,260.00
2018-09-25T05:22:43.479Z,276.00
2018-09-25T05:23:43.472Z,288.00
2018-09-25T05:24:43.525Z,300.00
2018-09-25T05:25:43.458Z,312.00
2018-09-25T05:26:43.453Z,324.00
2018-09-25T05:27:43.447Z,336.00
2018-09-25T05:28:43.440Z,348.00
2018-09-25T05:29:43.434Z,364.00
2018-09-25T05:30:43.426Z,376.00
2018-09-25T05:31:43.419Z,396.00
2018-09-25T05:32:43.414Z,408.00
2018-09-25T05:33:43.406Z,416.00
2018-09-25T05:34:43.399Z,424.00
2018-09-25T05:35:43.394Z,436.00
2018-09-25T05:36:43.393Z,448.00
2018-09-25T05:37:43.382Z,460.00
2018-09-25T05:38:43.377Z,472.00
2018-09-25T05:39:43.370Z,484.00
2018-09-25T05:40:43.403Z,496.00
2018-09-25T05:41:43.358Z,512.00
2018-09-25T05:42:43.349Z,524.00
2018-09-25T05:43:43.343Z,536.00
2018-09-25T05:44:43.341Z,552.00
2018-09-25T05:45:43.329Z,568.00
2018-09-25T05:46:43.323Z,572.00
2018-09-25T05:47:43.317Z,580.00
2018-09-25T05:48:43.404Z,596.00
2018-09-25T05:49:43.306Z,596.00
2018-09-25T05:50:43.298Z,588.00
2018-09-25T05:51:43.623Z,596.00
2018-09-25T05:52:44.365Z,604.00
2018-09-25T05:53:43.340Z,616.00
2018-09-25T05:54:43.273Z,640.00
2018-09-25T05:55:43.351Z,656.00
2018-09-25T05:56:43.259Z,664.00
2018-09-25T05:57:43.264Z,664.00
2018-09-25T05:58:45.020Z,660.00
2018-09-25T05:59:43.240Z,660.00
2018-09-25T06:00:43.243Z,668.00
2018-09-25T06:01:43.228Z,676.00
2018-09-25T06:02:43.222Z,680.00
2018-09-25T06:03:43.215Z,688.00
2018-09-25T06:04:43.209Z,696.00
2018-09-25T06:05:43.202Z,704.00
2018-09-25T06:06:43.197Z,704.00
2018-09-25T06:07:43.189Z,704.00
2018-09-25T06:08:43.186Z,704.00
2018-09-25T06:09:43.228Z,708.00
2018-09-25T06:10:43.172Z,716.00
2018-09-25T06:11:43.784Z,716.00
2018-09-25T06:12:43.159Z,720.00
2018-09-25T06:13:43.153Z,724.00
2018-09-25T06:14:43.149Z,724.00
2018-09-25T06:15:43.192Z,724.00
2018-09-25T06:16:43.136Z,732.00
2018-09-25T06:17:43.130Z,732.00
2018-09-25T06:18:43.159Z,732.00
2018-09-25T06:19:43.114Z,740.00
2018-09-25T06:20:43.120Z,744.00
2018-09-25T06:21:43.102Z,748.00
2018-09-25T06:22:43.096Z,756.00
2018-09-25T06:23:43.094Z,756.00
2018-09-25T06:24:43.088Z,760.00
2018-09-25T06:25:43.078Z,768.00
2018-09-25T06:26:43.088Z,772.00
2018-09-25T06:27:43.067Z,780.00
2018-09-25T06:28:43.069Z,776.00
2018-09-25T06:29:43.053Z,776.00
2018-09-25T06:30:43.047Z,784.00
2018-09-25T06:31:43.041Z,784.00
2018-09-25T06:32:43.034Z,784.00
2018-09-25T06:33:43.039Z,784.00
2018-09-25T06:34:43.074Z,788.00
2018-09-25T06:35:43.016Z,784.00
2018-09-25T06:36:43.009Z,788.00
2018-09-25T06:37:43.009Z,788.00
2018-09-25T06:38:43.009Z,788.00
2018-09-25T06:39:42.993Z,784.00
2018-09-25T06:40:43.023Z,808.00
2018-09-25T06:41:42.980Z,784.00
2018-09-25T06:42:42.974Z,788.00
2018-09-25T06:43:42.968Z,792.00
2018-09-25T06:44:42.973Z,792.00
2018-09-25T06:45:42.956Z,796.00
2018-09-25T06:46:42.949Z,796.00
2018-09-25T06:47:42.945Z,796.00
2018-09-25T06:48:42.936Z,800.00
2018-09-25T06:49:42.930Z,796.00
2018-09-25T06:50:42.926Z,796.00
2018-09-25T06:51:42.919Z,800.00
2018-09-25T06:52:42.914Z,800.00
2018-09-25T06:53:42.907Z,800.00
2018-09-25T06:54:42.973Z,800.00
2018-09-25T06:55:42.897Z,800.00
2018-09-25T06:56:42.889Z,804.00
2018-09-25T06:57:42.887Z,804.00
2018-09-25T06:58:42.880Z,808.00
2018-09-25T06:59:42.875Z,808.00
2018-09-25T07:00:42.868Z,816.00
2018-09-25T07:01:42.862Z,812.00
2018-09-25T07:02:42.853Z,808.00
2018-09-25T07:03:42.848Z,816.00
2018-09-25T07:04:42.842Z,816.00
2018-09-25T07:05:42.849Z,816.00
2018-09-25T07:06:42.935Z,816.00
2018-09-25T07:07:42.824Z,820.00
2018-09-25T07:08:42.817Z,820.00
2018-09-25T07:09:42.891Z,824.00
2018-09-25T07:10:42.894Z,820.00
2018-09-25T07:11:42.803Z,824.00
2018-09-25T07:12:42.795Z,820.00
2018-09-25T07:13:42.792Z,824.00
2018-09-25T07:14:42.802Z,828.00
2018-09-25T07:15:42.777Z,828.00
2018-09-25T07:16:42.774Z,828.00
2018-09-25T07:17:42.801Z,824.00
2018-09-25T07:18:42.762Z,832.00
2018-09-25T07:19:42.753Z,828.00
2018-09-25T07:20:42.753Z,828.00
2018-09-25T07:21:42.742Z,832.00
2018-09-25T07:22:42.780Z,832.00
2018-09-25T07:23:42.730Z,832.00
2018-09-25T07:24:42.772Z,836.00
2018-09-25T07:25:42.719Z,836.00
2018-09-25T07:26:42.713Z,836.00
2018-09-25T07:27:42.728Z,836.00
2018-09-25T07:28:42.704Z,840.00
2018-09-25T07:29:42.696Z,840.00
2018-09-25T07:30:42.694Z,840.00
2018-09-25T07:31:42.684Z,840.00
2018-09-25T07:32:42.682Z,844.00
2018-09-25T07:33:42.671Z,844.00
2018-09-25T07:34:42.668Z,840.00
2018-09-25T07:35:42.662Z,844.00
2018-09-25T07:36:42.656Z,844.00
2018-09-25T07:37:42.679Z,848.00
2018-09-25T07:38:42.651Z,852.00
2018-09-25T07:39:42.705Z,856.00
2018-09-25T07:40:42.635Z,852.00
2018-09-25T07:41:42.625Z,860.00
2018-09-25T07:42:42.620Z,860.00
2018-09-25T07:43:42.945Z,864.00
2018-09-25T07:44:42.609Z,868.00
2018-09-25T07:45:42.604Z,872.00
2018-09-25T07:46:42.601Z,872.00
2018-09-25T07:47:42.591Z,876.00
2018-09-25T07:48:42.587Z,880.00
2018-09-25T07:49:42.581Z,880.00
2018-09-25T07:50:42.575Z,884.00
2018-09-25T07:51:42.572Z,880.00
2018-09-25T07:52:44.493Z,880.00
2018-09-25T07:53:44.490Z,888.00
2018-09-25T07:54:42.555Z,884.00
2018-09-25T07:55:42.609Z,888.00
2018-09-25T07:56:42.541Z,888.00
2018-09-25T07:57:42.535Z,892.00
2018-09-25T07:58:42.528Z,896.00
2018-09-25T07:59:42.525Z,896.00
2018-09-25T08:00:42.539Z,900.00
2018-09-25T08:01:42.512Z,904.00
2018-09-25T08:02:42.508Z,904.00
2018-09-25T08:03:42.548Z,908.00
2018-09-25T08:04:42.700Z,908.00
2018-09-25T08:05:42.512Z,908.00
2018-09-25T08:06:42.494Z,916.00
2018-09-25T08:07:42.479Z,912.00
2018-09-25T08:08:42.475Z,916.00
2018-09-25T08:09:42.469Z,912.00
2018-09-25T08:10:42.465Z,916.00
2018-09-25T08:11:42.458Z,920.00
2018-09-25T08:12:42.455Z,924.00
2018-09-25T08:13:42.451Z,924.00
2018-09-25T08:14:43.350Z,924.00
2018-09-25T08:15:42.436Z,920.00
2018-09-25T08:16:42.435Z,920.00
2018-09-25T08:17:42.426Z,928.00
2018-09-25T08:18:42.421Z,932.00
2018-09-25T08:19:42.416Z,940.00
2018-09-25T08:20:42.410Z,936.00
2018-09-25T08:21:42.405Z,940.00
2018-09-25T08:22:42.399Z,952.00
2018-09-25T08:23:42.396Z,956.00
2018-09-25T08:24:42.388Z,968.00
2018-09-25T08:25:42.395Z,984.00
2018-09-25T08:26:42.381Z,984.00
2018-09-25T08:27:42.371Z,1000.00
2018-09-25T08:28:42.370Z,1064.00
2018-09-25T08:29:42.376Z,1048.00
2018-09-25T08:30:42.360Z,1020.00
2018-09-25T08:31:42.353Z,1020.00
2018-09-25T08:32:42.347Z,1064.00
2018-09-25T08:33:42.347Z,1108.00
2018-09-25T08:34:42.344Z,1140.00
2018-09-25T08:35:42.335Z,1232.00
2018-09-25T08:36:42.328Z,1264.00
2018-09-25T08:37:42.322Z,1176.00
2018-09-25T08:38:42.322Z,1156.00
2018-09-25T08:39:42.310Z,1020.00
2018-09-25T08:40:42.309Z,1024.00
2018-09-25T08:41:42.302Z,1032.00
2018-09-25T08:42:42.300Z,1024.00
2018-09-25T08:43:42.291Z,1028.00
2018-09-25T08:44:42.404Z,1032.00
2018-09-25T08:45:42.304Z,1056.00
2018-09-25T08:46:42.285Z,1012.00
2018-09-25T08:47:42.276Z,1044.00
2018-09-25T08:48:42.266Z,1120.00
2018-09-25T08:49:42.261Z,1016.00
2018-09-25T08:50:42.259Z,952.00
2018-09-25T08:51:42.253Z,1032.00
2018-09-25T08:52:42.247Z,1028.00
2018-09-25T08:53:42.246Z,1032.00
2018-09-25T08:54:42.237Z,1028.00
2018-09-25T08:55:42.234Z,1032.00
2018-09-25T08:56:42.229Z,1040.00
2018-09-25T08:57:42.226Z,1052.00
2018-09-25T08:58:42.218Z,1060.00
2018-09-25T08:59:42.213Z,1056.00
2018-09-25T09:00:42.224Z,1056.00
2018-09-25T09:01:42.204Z,1104.00
2018-09-25T09:02:42.237Z,1080.00
2018-09-25T09:03:42.233Z,1100.00
2018-09-25T09:04:42.189Z,1080.00
2018-09-25T09:05:42.188Z,1032.00
2018-09-25T09:06:42.183Z,1088.00
2018-09-25T09:07:42.182Z,1132.00
2018-09-25T09:08:42.170Z,1108.00
2018-09-25T09:09:42.166Z,1120.00
2018-09-25T09:10:42.190Z,1176.00
2018-09-25T09:11:44.002Z,1320.00
2018-09-25T09:12:42.150Z,1124.00
2018-09-25T09:13:42.147Z,1064.00
2018-09-25T09:14:42.144Z,1212.00
2018-09-25T09:15:42.136Z,1228.00
2018-09-25T09:16:42.132Z,1208.00
2018-09-25T09:17:42.132Z,1472.00
2018-09-25T09:18:42.127Z,1328.00
2018-09-25T09:19:42.211Z,1192.00
2018-09-25T09:20:42.113Z,1112.00
2018-09-25T09:21:42.109Z,1112.00
2018-09-25T09:22:42.104Z,1116.00
2018-09-25T09:23:42.098Z,1112.00
2018-09-25T09:24:42.097Z,1140.00
2018-09-25T09:25:42.090Z,1116.00
2018-09-25T09:26:42.097Z,1104.00
2018-09-25T09:27:42.080Z,1096.00
2018-09-25T09:28:42.075Z,1104.00
2018-09-25T09:29:42.080Z,1104.00
2018-09-25T09:30:42.067Z,1100.00
2018-09-25T09:31:42.060Z,1116.00
2018-09-25T09:32:42.118Z,1132.00
2018-09-25T09:33:42.050Z,1148.00
2018-09-25T09:34:42.069Z,1160.00
2018-09-25T09:35:42.050Z,1184.00
2018-09-25T09:36:42.037Z,1160.00
2018-09-25T09:37:42.037Z,1180.00
2018-09-25T09:38:42.028Z,1196.00
2018-09-25T09:39:42.028Z,1252.00
2018-09-25T09:40:42.021Z,1424.00
2018-09-25T09:41:42.258Z,1492.00
2018-09-25T09:42:42.015Z,1456.00
2018-09-25T09:43:42.005Z,1440.00
2018-09-25T09:44:42.007Z,1764.00
2018-09-25T09:45:41.994Z,1888.00
2018-09-25T09:46:42.548Z,1640.00
2018-09-25T09:47:41.985Z,1696.00
2018-09-25T09:48:42.050Z,1808.00
2018-09-25T09:49:41.982Z,2132.00
2018-09-25T09:50:41.971Z,2508.00
2018-09-25T09:51:42.202Z,2616.00
2018-09-25T09:52:42.960Z,2268.00
2018-09-25T09:53:42.061Z,2584.00
2018-09-25T09:54:41.985Z,2928.00
2018-09-25T09:55:41.987Z,3356.00
2018-09-25T09:56:42.040Z,2732.00
2018-09-25T09:57:41.985Z,2108.00
2018-09-25T09:58:41.976Z,2128.00
2018-09-25T09:59:41.929Z,2616.00
2018-09-25T10:00:41.924Z,2980.00
2018-09-25T10:01:42.221Z,3840.00
2018-09-25T10:02:41.962Z,3832.00
2018-09-25T10:03:41.910Z,3616.00
2018-09-25T10:04:44.567Z,3292.00
2018-09-25T10:05:41.919Z,2840.00
2018-09-25T10:06:41.929Z,2688.00
2018-09-25T10:07:42.038Z,2732.00
2018-09-25T10:08:42.194Z,2884.00
2018-09-25T10:09:41.888Z,3428.00
2018-09-25T10:10:41.885Z,3420.00
2018-09-25T10:11:41.925Z,3124.00
2018-09-25T10:12:42.088Z,3268.00
2018-09-25T10:13:42.231Z,3020.00
2018-09-25T10:14:41.871Z,3112.00
2018-09-25T10:15:41.864Z,3000.00
2018-09-25T10:16:41.862Z,2440.00
2018-09-25T10:17:41.862Z,1708.00
2018-09-25T10:18:41.881Z,1672.00
2018-09-25T10:19:41.848Z,1980.00
2018-09-25T10:20:41.845Z,2240.00
2018-09-25T10:21:41.846Z,2752.00
2018-09-25T10:22:41.860Z,3096.00
2018-09-25T10:23:41.835Z,2980.00
2018-09-25T10:24:41.831Z,2788.00
2018-09-25T10:25:41.828Z,2840.00
2018-09-25T10:26:41.823Z,3224.00
2018-09-25T10:27:41.823Z,3916.00
2018-09-25T10:28:41.819Z,3532.00
2018-09-25T10:29:41.825Z,3008.00
2018-09-25T10:30:41.810Z,2532.00
2018-09-25T10:31:41.811Z,2236.00
2018-09-25T10:32:41.810Z,2104.00
2018-09-25T10:33:41.799Z,2192.00
2018-09-25T10:34:41.796Z,2640.00
2018-09-25T10:35:41.794Z,2824.00
2018-09-25T10:36:41.790Z,2596.00
2018-09-25T10:37:41.785Z,2036.00
2018-09-25T10:38:41.804Z,1932.00
2018-09-25T10:39:41.781Z,2104.00
2018-09-25T10:40:41.779Z,2552.00
2018-09-25T10:41:41.777Z,2652.00
2018-09-25T10:42:41.769Z,2672.00
2018-09-25T10:43:41.768Z,2776.00
2018-09-25T10:44:41.763Z,2600.00
2018-09-25T10:45:41.763Z,1884.00
2018-09-25T10:46:41.757Z,1820.00
2018-09-25T10:47:41.754Z,2044.00
2018-09-25T10:48:41.751Z,2088.00
2018-09-25T10:49:41.790Z,1896.00
2018-09-25T10:50:41.743Z,1792.00
2018-09-25T10:51:41.740Z,1772.00
2018-09-25T10:52:41.736Z,1768.00
2018-09-25T10:53:41.734Z,1976.00
2018-09-25T10:54:41.731Z,2272.00
2018-09-25T10:55:41.772Z,2316.00
2018-09-25T10:56:41.723Z,2292.00
2018-09-25T10:57:41.721Z,2828.00
2018-09-25T10:58:41.717Z,3836.00
2018-09-25T10:59:41.713Z,3296.00
2018-09-25T11:00:41.711Z,2892.00
2018-09-25T11:01:41.705Z,2972.00
2018-09-25T11:02:41.769Z,3048.00
2018-09-25T11:03:41.699Z,2612.00
2018-09-25T11:04:41.697Z,2572.00
2018-09-25T11:05:41.694Z,2740.00
2018-09-25T11:06:41.690Z,2580.00
2018-09-25T11:07:41.686Z,2484.00
2018-09-25T11:08:41.684Z,2692.00
2018-09-25T11:09:41.685Z,3296.00
2018-09-25T11:10:41.676Z,3928.00
2018-09-25T11:11:41.673Z,4172.00
2018-09-25T11:12:41.673Z,3832.00
2018-09-25T11:13:41.668Z,2852.00
2018-09-25T11:14:41.664Z,2316.00
2018-09-25T11:15:41.662Z,2008.00
2018-09-25T11:16:41.659Z,1664.00
2018-09-25T11:17:41.693Z,1440.00
2018-09-25T11:18:41.849Z,1264.00
2018-09-25T11:19:41.649Z,1208.00
2018-09-25T11:20:41.647Z,1272.00
2018-09-25T11:21:41.645Z,1396.00
2018-09-25T11:22:41.642Z,1484.00
2018-09-25T11:23:41.640Z,1548.00
2018-09-25T11:24:41.637Z,1448.00
2018-09-25T11:25:41.637Z,1460.00
2018-09-25T11:26:41.667Z,1564.00
2018-09-25T11:27:41.630Z,1768.00
2018-09-25T11:28:41.626Z,1836.00
2018-09-25T11:29:41.623Z,1940.00
2018-09-25T11:30:41.620Z,2264.00
2018-09-25T11:31:41.616Z,2244.00
2018-09-25T11:32:41.637Z,2268.00
2018-09-25T11:33:41.621Z,2584.00
2018-09-25T11:34:41.622Z,2628.00
2018-09-25T11:35:41.605Z,2776.00
2018-09-25T11:36:41.612Z,3252.00
2018-09-25T11:37:41.608Z,3240.00
2018-09-25T11:38:41.595Z,3072.00
2018-09-25T11:39:41.592Z,3276.00
2018-09-25T11:40:41.590Z,3628.00
2018-09-25T11:41:41.593Z,3584.00
2018-09-25T11:42:41.584Z,3420.00
2018-09-25T11:43:41.584Z,3048.00
2018-09-25T11:44:41.602Z,2968.00
2018-09-25T11:45:41.576Z,3016.00
2018-09-25T11:46:41.618Z,3028.00
2018-09-25T11:47:41.572Z,3008.00
2018-09-25T11:48:41.565Z,2628.00
2018-09-25T11:49:42.308Z,2552.00
2018-09-25T11:50:41.563Z,2568.00
2018-09-25T11:51:41.556Z,2724.00
2018-09-25T11:52:41.591Z,2696.00
2018-09-25T11:53:41.554Z,2308.00
2018-09-25T11:54:41.551Z,1992.00
2018-09-25T11:55:41.605Z,1844.00
2018-09-25T11:56:41.544Z,1880.00
2018-09-25T11:57:41.548Z,2024.00
2018-09-25T11:58:41.542Z,2228.00
2018-09-25T11:59:41.568Z,2088.00
2018-09-25T12:00:41.549Z,1908.00
2018-09-25T12:01:41.537Z,1824.00
2018-09-25T12:02:41.529Z,1664.00
2018-09-25T12:03:41.528Z,1724.00
2018-09-25T12:04:41.526Z,1680.00
2018-09-25T12:05:41.520Z,1796.00
2018-09-25T12:06:41.519Z,1668.00
2018-09-25T12:07:41.537Z,1568.00
2018-09-25T12:08:41.519Z,1592.00
2018-09-25T12:09:41.513Z,1604.00
2018-09-25T12:10:41.512Z,1660.00
2018-09-25T12:11:41.512Z,1768.00
2018-09-25T12:12:41.501Z,1956.00
2018-09-25T12:13:41.508Z,1872.00
2018-09-25T12:14:41.497Z,1652.00
2018-09-25T12:15:41.494Z,1564.00
2018-09-25T12:16:41.492Z,1632.00
2018-09-25T12:17:41.491Z,1596.00
2018-09-25T12:18:41.487Z,1460.00
2018-09-25T12:19:41.486Z,1428.00
2018-09-25T12:20:41.485Z,1392.00
2018-09-25T12:21:41.478Z,1532.00
2018-09-25T12:22:41.477Z,1568.00
2018-09-25T12:23:41.472Z,1528.00
2018-09-25T12:24:41.472Z,1544.00
2018-09-25T12:25:41.466Z,1660.00
2018-09-25T12:26:41.505Z,1748.00
2018-09-25T12:27:41.495Z,1972.00
2018-09-25T12:28:41.471Z,1972.00
2018-09-25T12:29:41.458Z,1860.00
2018-09-25T12:30:41.455Z,1768.00
2018-09-25T12:31:41.456Z,1820.00
2018-09-25T12:32:41.515Z,1728.00
2018-09-25T12:33:41.466Z,1664.00
2018-09-25T12:34:41.442Z,1476.00
2018-09-25T12:35:41.437Z,1528.00
2018-09-25T12:36:41.440Z,1540.00
2018-09-25T12:37:41.441Z,1752.00
2018-09-25T12:38:41.442Z,1728.00